sensor_id;sensor_type;location;lat;lon;timestamp;pressure;altitude;pressure_sealevel;temperature;humidity
22047;BME280;11187;49.412;20.956;2023-05-24T00:02:03;94755.03;;;14.17;100.00
22047;BME280;11187;49.412;20.956;2023-05-24T00:04:45;94750.91;;;14.13;100.00
22047;BME280;11187;49.412;20.956;2023-05-24T00:07:39;94748.38;;;14.12;100.00
22047;BME280;11187;49.412;20.956;2023-05-24T00:10:12;94751.06;;;14.09;100.00
22047;BME280;11187;49.412;20.956;2023-05-24T00:13:06;94753.69;;;14.07;100.00
22047;BME280;11187;49.412;20.956;2023-05-24T00:16:01;94746.03;;;14.06;100.00
22047;BME280;11187;49.412;20.956;2023-05-24T00:18:35;94752.97;;;14.04;100.00
22047;BME280;11187;49.412;20.956;2023-05-24T00:21:25;94747.94;;;14.00;100.00
22047;BME280;11187;49.412;20.956;2023-05-24T00:23:58;94756.63;;;13.98;100.00
22047;BME280;11187;49.412;20.956;2023-05-24T00:26:45;94746.53;;;13.92;100.00
22047;BME280;11187;49.412;20.956;2023-05-24T00:29:18;94747.44;;;13.91;100.00
22047;BME280;11187;49.412;20.956;2023-05-24T00:32:05;94748.41;;;13.88;100.00
22047;BME280;11187;49.412;20.956;2023-05-24T00:34:39;94750.25;;;13.85;100.00
22047;BME280;11187;49.412;20.956;2023-05-24T00:37:26;94753.78;;;13.82;100.00
22047;BME280;11187;49.412;20.956;2023-05-24T00:40:02;94747.78;;;13.82;100.00
22047;BME280;11187;49.412;20.956;2023-05-24T00:42:55;94754.56;;;13.84;100.00
22047;BME280;11187;49.412;20.956;2023-05-24T00:46:26;94751.19;;;13.82;100.00
22047;BME280;11187;49.412;20.956;2023-05-24T00:49:01;94752.19;;;13.78;100.00
22047;BME280;11187;49.412;20.956;2023-05-24T00:51:47;94753.97;;;13.76;100.00
22047;BME280;11187;49.412;20.956;2023-05-24T00:54:21;94746.38;;;13.73;100.00
22047;BME280;11187;49.412;20.956;2023-05-24T00:57:08;94753.31;;;13.71;100.00
22047;BME280;11187;49.412;20.956;2023-05-24T00:59:41;94744.66;;;13.73;100.00
22047;BME280;11187;49.412;20.956;2023-05-24T01:02:28;94747.22;;;13.73;100.00
22047;BME280;11187;49.412;20.956;2023-05-24T01:05:02;94750.66;;;13.74;100.00
22047;BME280;11187;49.412;20.956;2023-05-24T01:08:22;94757.63;;;13.70;100.00
22047;BME280;11187;49.412;20.956;2023-05-24T01:11:11;94750.91;;;13.66;100.00
22047;BME280;11187;49.412;20.956;2023-05-24T01:19:50;94749.34;;;13.62;100.00
22047;BME280;11187;49.412;20.956;2023-05-24T01:28:41;94742.56;;;13.60;100.00
22047;BME280;11187;49.412;20.956;2023-05-24T01:31:16;94745.28;;;13.56;100.00
22047;BME280;11187;49.412;20.956;2023-05-24T01:34:03;94756.50;;;13.54;100.00
22047;BME280;11187;49.412;20.956;2023-05-24T01:36:36;94747.06;;;13.54;100.00
22047;BME280;11187;49.412;20.956;2023-05-24T01:39:30;94747.09;;;13.53;100.00
22047;BME280;11187;49.412;20.956;2023-05-24T01:42:23;94749.75;;;13.51;100.00
22047;BME280;11187;49.412;20.956;2023-05-24T01:48:18;94745.59;;;13.47;100.00
22047;BME280;11187;49.412;20.956;2023-05-24T01:51:17;94746.59;;;13.43;100.00
22047;BME280;11187;49.412;20.956;2023-05-24T01:54:12;94749.22;;;13.42;100.00
22047;BME280;11187;49.412;20.956;2023-05-24T01:56:47;94759.50;;;13.42;100.00
22047;BME280;11187;49.412;20.956;2023-05-24T01:59:35;94762.97;;;13.41;100.00
22047;BME280;11187;49.412;20.956;2023-05-24T02:02:09;94756.22;;;13.38;100.00
22047;BME280;11187;49.412;20.956;2023-05-24T02:04:57;94759.63;;;13.39;100.00
22047;BME280;11187;49.412;20.956;2023-05-24T02:07:51;94760.56;;;13.36;100.00
22047;BME280;11187;49.412;20.956;2023-05-24T02:10:45;94759.75;;;13.35;100.00
22047;BME280;11187;49.412;20.956;2023-05-24T02:13:39;94761.44;;;13.35;100.00
22047;BME280;11187;49.412;20.956;2023-05-24T02:16:33;94755.50;;;13.33;100.00
22047;BME280;11187;49.412;20.956;2023-05-24T02:19:28;94764.13;;;13.32;100.00
22047;BME280;11187;49.412;20.956;2023-05-24T02:22:02;94758.16;;;13.31;100.00
22047;BME280;11187;49.412;20.956;2023-05-24T02:24:48;94760.72;;;13.31;100.00
22047;BME280;11187;49.412;20.956;2023-05-24T02:27:21;94764.88;;;13.35;100.00
22047;BME280;11187;49.412;20.956;2023-05-24T02:30:08;94770.03;;;13.35;100.00
22047;BME280;11187;49.412;20.956;2023-05-24T02:32:42;94762.31;;;13.35;100.00
22047;BME280;11187;49.412;20.956;2023-05-24T02:35:29;94765.75;;;13.34;100.00
22047;BME280;11187;49.412;20.956;2023-05-24T02:38:02;94768.31;;;13.34;100.00
22047;BME280;11187;49.412;20.956;2023-05-24T02:40:49;94758.84;;;13.36;100.00
22047;BME280;11187;49.412;20.956;2023-05-24T02:43:22;94762.22;;;13.37;100.00
22047;BME280;11187;49.412;20.956;2023-05-24T02:46:09;94764.00;;;13.35;100.00
22047;BME280;11187;49.412;20.956;2023-05-24T02:48:42;94768.38;;;13.33;100.00
22047;BME280;11187;49.412;20.956;2023-05-24T02:51:29;94772.69;;;13.32;100.00
22047;BME280;11187;49.412;20.956;2023-05-24T02:54:05;94768.44;;;13.31;100.00
22047;BME280;11187;49.412;20.956;2023-05-24T02:56:52;94777.91;;;13.31;100.00
22047;BME280;11187;49.412;20.956;2023-05-24T02:59:25;94777.91;;;13.31;100.00
22047;BME280;11187;49.412;20.956;2023-05-24T03:02:12;94775.41;;;13.28;100.00
22047;BME280;11187;49.412;20.956;2023-05-24T03:04:48;94778.03;;;13.26;100.00
22047;BME280;11187;49.412;20.956;2023-05-24T03:07:42;94780.63;;;13.25;100.00
22047;BME280;11187;49.412;20.956;2023-05-24T03:10:36;94785.81;;;13.23;100.00
22047;BME280;11187;49.412;20.956;2023-05-24T03:13:30;94778.22;;;13.20;100.00
22047;BME280;11187;49.412;20.956;2023-05-24T03:16:24;94773.09;;;13.20;100.00
22047;BME280;11187;49.412;20.956;2023-05-24T03:19:18;94777.44;;;13.18;100.00
22047;BME280;11187;49.412;20.956;2023-05-24T03:21:51;94781.75;;;13.18;100.00
22047;BME280;11187;49.412;20.956;2023-05-24T03:24:45;94775.66;;;13.20;100.00
22047;BME280;11187;49.412;20.956;2023-05-24T03:27:39;94777.38;;;13.20;100.00
22047;BME280;11187;49.412;20.956;2023-05-24T03:30:12;94779.88;;;13.21;100.00
22047;BME280;11187;49.412;20.956;2023-05-24T03:33:06;94785.13;;;13.18;100.00
22047;BME280;11187;49.412;20.956;2023-05-24T03:36:00;94784.16;;;13.22;100.00
22047;BME280;11187;49.412;20.956;2023-05-24T03:38:34;94780.63;;;13.25;100.00
22047;BME280;11187;49.412;20.956;2023-05-24T03:41:28;94783.16;;;13.26;100.00
22047;BME280;11187;49.412;20.956;2023-05-24T03:44:02;94785.69;;;13.28;100.00
22047;BME280;11187;49.412;20.956;2023-05-24T03:46:49;94785.72;;;13.26;100.00
22047;BME280;11187;49.412;20.956;2023-05-24T03:49:22;94790.88;;;13.26;100.00
22047;BME280;11187;49.412;20.956;2023-05-24T03:52:16;94790.84;;;13.28;100.00
22047;BME280;11187;49.412;20.956;2023-05-24T03:54:49;94794.19;;;13.30;100.00
22047;BME280;11187;49.412;20.956;2023-05-24T03:57:36;94796.66;;;13.33;100.00
22047;BME280;11187;49.412;20.956;2023-05-24T04:00:10;94803.38;;;13.37;100.00
22047;BME280;11187;49.412;20.956;2023-05-24T04:02:57;94799.81;;;13.41;100.00
22047;BME280;11187;49.412;20.956;2023-05-24T04:05:32;94804.84;;;13.44;100.00
22047;BME280;11187;49.412;20.956;2023-05-24T04:08:19;94803.06;;;13.46;100.00
22047;BME280;11187;49.412;20.956;2023-05-24T04:10:52;94802.09;;;13.49;100.00
22047;BME280;11187;49.412;20.956;2023-05-24T04:13:46;94805.41;;;13.52;100.00
22047;BME280;11187;49.412;20.956;2023-05-24T04:16:41;94801.91;;;13.55;100.00
22047;BME280;11187;49.412;20.956;2023-05-24T04:19:17;94802.66;;;13.58;100.00
22047;BME280;11187;49.412;20.956;2023-05-24T04:22:10;94806.84;;;13.61;100.00
22047;BME280;11187;49.412;20.956;2023-05-24T04:24:44;94805.78;;;13.67;100.00
22047;BME280;11187;49.412;20.956;2023-05-24T04:27:31;94804.78;;;13.71;100.00
22047;BME280;11187;49.412;20.956;2023-05-24T04:30:05;94813.16;;;13.76;100.00
22047;BME280;11187;49.412;20.956;2023-05-24T04:32:52;94817.44;;;13.77;100.00
22047;BME280;11187;49.412;20.956;2023-05-24T04:35:26;94814.72;;;13.80;100.00
22047;BME280;11187;49.412;20.956;2023-05-24T04:38:19;94820.66;;;13.82;100.00
22047;BME280;11187;49.412;20.956;2023-05-24T04:41:15;94818.75;;;13.87;100.00
22047;BME280;11187;49.412;20.956;2023-05-24T04:43:48;94817.88;;;13.88;100.00
22047;BME280;11187;49.412;20.956;2023-05-24T04:46:35;94820.47;;;13.88;100.00
22047;BME280;11187;49.412;20.956;2023-05-24T04:49:09;94821.25;;;13.90;100.00
22047;BME280;11187;49.412;20.956;2023-05-24T04:51:55;94826.38;;;13.90;100.00
22047;BME280;11187;49.412;20.956;2023-05-24T04:54:28;94831.53;;;13.90;100.00
22047;BME280;11187;49.412;20.956;2023-05-24T04:57:22;94825.47;;;13.91;100.00
22047;BME280;11187;49.412;20.956;2023-05-24T04:59:55;94828.88;;;13.92;100.00
22047;BME280;11187;49.412;20.956;2023-05-24T05:02:50;94828.88;;;13.92;100.00
22047;BME280;11187;49.412;20.956;2023-05-24T05:05:44;94830.63;;;13.91;100.00
22047;BME280;11187;49.412;20.956;2023-05-24T05:08:38;94828.06;;;13.91;100.00
22047;BME280;11187;49.412;20.956;2023-05-24T05:11:13;94832.16;;;13.97;100.00
22047;BME280;11187;49.412;20.956;2023-05-24T05:14:07;94832.88;;;14.00;100.00
22047;BME280;11187;49.412;20.956;2023-05-24T05:17:01;94837.84;;;14.05;100.00
22047;BME280;11187;49.412;20.956;2023-05-24T05:19:34;94839.47;;;14.08;100.00
22047;BME280;11187;49.412;20.956;2023-05-24T05:22:28;94847.94;;;14.11;100.00
22047;BME280;11187;49.412;20.956;2023-05-24T05:25:22;94847.03;;;14.12;100.00
22047;BME280;11187;49.412;20.956;2023-05-24T05:27:55;94846.94;;;14.15;100.00
22047;BME280;11187;49.412;20.956;2023-05-24T05:30:49;94843.44;;;14.16;100.00
22047;BME280;11187;49.412;20.956;2023-05-24T05:33:23;94844.22;;;14.18;100.00
22047;BME280;11187;49.412;20.956;2023-05-24T05:36:09;94847.56;;;14.22;100.00
22047;BME280;11187;49.412;20.956;2023-05-24T05:38:43;94856.88;;;14.25;100.00
22047;BME280;11187;49.412;20.956;2023-05-24T05:41:37;94848.94;;;14.31;100.00
22047;BME280;11187;49.412;20.956;2023-05-24T05:44:31;94856.38;;;14.38;100.00
22047;BME280;11187;49.412;20.956;2023-05-24T05:47:04;94858.66;;;14.46;100.00
22047;BME280;11187;49.412;20.956;2023-05-24T05:49:51;94865.25;;;14.53;100.00
22047;BME280;11187;49.412;20.956;2023-05-24T05:52:25;94863.31;;;14.60;100.00
22047;BME280;11187;49.412;20.956;2023-05-24T05:55:18;94865.53;;;14.69;100.00
22047;BME280;11187;49.412;20.956;2023-05-24T05:58:21;94867.88;;;14.75;100.00
22047;BME280;11187;49.412;20.956;2023-05-24T06:01:15;94870.38;;;14.78;100.00
22047;BME280;11187;49.412;20.956;2023-05-24T06:03:49;94868.50;;;14.82;100.00
22047;BME280;11187;49.412;20.956;2023-05-24T06:06:43;94877.72;;;14.88;100.00
22047;BME280;11187;49.412;20.956;2023-05-24T06:09:37;94882.72;;;14.92;100.00
22047;BME280;11187;49.412;20.956;2023-05-24T06:12:31;94880.78;;;14.97;100.00
22047;BME280;11187;49.412;20.956;2023-05-24T06:15:06;94883.19;;;15.02;100.00
22047;BME280;11187;49.412;20.956;2023-05-24T06:17:53;94889.81;;;15.08;100.00
22047;BME280;11187;49.412;20.956;2023-05-24T06:20:27;94888.75;;;15.13;100.00
22047;BME280;11187;49.412;20.956;2023-05-24T06:23:20;94885.81;;;15.22;100.00
22047;BME280;11187;49.412;20.956;2023-05-24T06:25:54;94889.84;;;15.28;100.00
22047;BME280;11187;49.412;20.956;2023-05-24T06:28:40;94885.19;;;15.38;100.00
22047;BME280;11187;49.412;20.956;2023-05-24T06:31:14;94895.13;;;15.47;100.00
22047;BME280;11187;49.412;20.956;2023-05-24T06:34:07;94898.94;;;15.59;100.00
22047;BME280;11187;49.412;20.956;2023-05-24T06:36:41;94901.19;;;15.66;100.00
22047;BME280;11187;49.412;20.956;2023-05-24T06:39:27;94905.34;;;15.71;100.00
22047;BME280;11187;49.412;20.956;2023-05-24T06:42:01;94909.56;;;15.73;100.00
22047;BME280;11187;49.412;20.956;2023-05-24T06:44:47;94906.91;;;15.75;100.00
22047;BME280;11187;49.412;20.956;2023-05-24T06:47:21;94905.94;;;15.77;100.00
22047;BME280;11187;49.412;20.956;2023-05-24T06:50:14;94917.09;;;15.78;100.00
22047;BME280;11187;49.412;20.956;2023-05-24T06:53:08;94921.44;;;15.77;100.00
22047;BME280;11187;49.412;20.956;2023-05-24T06:56:02;94914.47;;;15.79;100.00
22047;BME280;11187;49.412;20.956;2023-05-24T06:58:36;94917.00;;;15.81;100.00
22047;BME280;11187;49.412;20.956;2023-05-24T07:01:22;94915.09;;;15.84;100.00
22047;BME280;11187;49.412;20.956;2023-05-24T07:03:56;94920.75;;;15.94;100.00
22047;BME280;11187;49.412;20.956;2023-05-24T07:06:42;94919.44;;;16.04;100.00
22047;BME280;11187;49.412;20.956;2023-05-24T07:09:16;94925.16;;;16.11;100.00
22047;BME280;11187;49.412;20.956;2023-05-24T07:12:03;94921.47;;;16.17;100.00
22047;BME280;11187;49.412;20.956;2023-05-24T07:14:37;94918.63;;;16.23;100.00
22047;BME280;11187;49.412;20.956;2023-05-24T07:17:30;94926.06;;;16.31;100.00
22047;BME280;11187;49.412;20.956;2023-05-24T07:20:24;94926.59;;;16.37;100.00
22047;BME280;11187;49.412;20.956;2023-05-24T07:22:59;94929.97;;;16.39;100.00
22047;BME280;11187;49.412;20.956;2023-05-24T07:25:45;94930.69;;;16.43;100.00
22047;BME280;11187;49.412;20.956;2023-05-24T07:28:19;94930.53;;;16.46;100.00
22047;BME280;11187;49.412;20.956;2023-05-24T07:31:08;94930.47;;;16.47;100.00
22047;BME280;11187;49.412;20.956;2023-05-24T07:33:42;94942.41;;;16.50;100.00
22047;BME280;11187;49.412;20.956;2023-05-24T07:36:28;94941.53;;;16.51;100.00
22047;BME280;11187;49.412;20.956;2023-05-24T07:39:04;94944.16;;;16.49;100.00
22047;BME280;11187;49.412;20.956;2023-05-24T07:42:01;94946.75;;;16.49;100.00
22047;BME280;11187;49.412;20.956;2023-05-24T07:44:35;94944.22;;;16.48;100.00
22047;BME280;11187;49.412;20.956;2023-05-24T07:47:28;94948.72;;;16.44;100.00
22047;BME280;11187;49.412;20.956;2023-05-24T07:50:22;94952.25;;;16.42;100.00
22047;BME280;11187;49.412;20.956;2023-05-24T07:53:17;94960.28;;;16.36;100.00
22047;BME280;11187;49.412;20.956;2023-05-24T07:55:50;94967.25;;;16.34;100.00
22047;BME280;11187;49.412;20.956;2023-05-24T07:58:43;94966.53;;;16.30;100.00
22047;BME280;11187;49.412;20.956;2023-05-24T08:01:19;94960.53;;;16.29;100.00
22047;BME280;11187;49.412;20.956;2023-05-24T08:04:12;94960.53;;;16.29;100.00
22047;BME280;11187;49.412;20.956;2023-05-24T08:07:06;94973.50;;;16.28;100.00
22047;BME280;11187;49.412;20.956;2023-05-24T08:10:00;94971.00;;;16.26;100.00
22047;BME280;11187;49.412;20.956;2023-05-24T08:12:54;94971.69;;;16.30;100.00
22047;BME280;11187;49.412;20.956;2023-05-24T08:15:28;94971.63;;;16.32;100.00
22047;BME280;11187;49.412;20.956;2023-05-24T08:18:14;94974.75;;;16.40;100.00
22047;BME280;11187;49.412;20.956;2023-05-24T08:20:48;94982.41;;;16.41;100.00
22047;BME280;11187;49.412;20.956;2023-05-24T08:23:34;94984.00;;;16.44;100.00
22047;BME280;11187;49.412;20.956;2023-05-24T08:26:09;94982.97;;;16.48;100.00
22047;BME280;11187;49.412;20.956;2023-05-24T08:28:59;94994.94;;;16.50;100.00
22047;BME280;11187;49.412;20.956;2023-05-24T08:31:33;94989.84;;;16.49;100.00
22047;BME280;11187;49.412;20.956;2023-05-24T08:34:26;94989.91;;;16.47;100.00
22047;BME280;11187;49.412;20.956;2023-05-24T08:37:21;94999.41;;;16.47;100.00
22047;BME280;11187;49.412;20.956;2023-05-24T08:39:55;94996.72;;;16.48;100.00
22047;BME280;11187;49.412;20.956;2023-05-24T08:42:43;95001.66;;;16.55;100.00
22047;BME280;11187;49.412;20.956;2023-05-24T08:45:20;95001.25;;;16.64;100.00
22047;BME280;11187;49.412;20.956;2023-05-24T08:48:08;95002.44;;;16.76;100.00
22047;BME280;11187;49.412;20.956;2023-05-24T08:50:41;95002.06;;;16.85;100.00
22047;BME280;11187;49.412;20.956;2023-05-24T08:53:29;95005.56;;;17.03;100.00
22047;BME280;11187;49.412;20.956;2023-05-24T08:56:04;95003.63;;;17.27;100.00
22047;BME280;11187;49.412;20.956;2023-05-24T08:58:59;95001.84;;;17.46;100.00
22047;BME280;11187;49.412;20.956;2023-05-24T09:01:53;95013.84;;;17.66;100.00
22047;BME280;11187;49.412;20.956;2023-05-24T09:04:27;95014.22;;;17.95;100.00
22047;BME280;11187;49.412;20.956;2023-05-24T09:07:17;95018.03;;;18.23;97.36
22047;BME280;11187;49.412;20.956;2023-05-24T09:10:03;95021.16;;;18.47;98.93
22047;BME280;11187;49.412;20.956;2023-05-24T09:12:54;95025.56;;;18.62;99.52
22047;BME280;11187;49.412;20.956;2023-05-24T09:15:29;95020.50;;;18.76;99.19
22047;BME280;11187;49.412;20.956;2023-05-24T09:18:22;95027.25;;;18.96;97.35
22047;BME280;11187;49.412;20.956;2023-05-24T09:20:56;95039.09;;;19.34;95.57
22047;BME280;11187;49.412;20.956;2023-05-24T09:23:43;95029.31;;;19.71;92.51
22047;BME280;11187;49.412;20.956;2023-05-24T09:26:17;95032.75;;;19.87;92.33
22047;BME280;11187;49.412;20.956;2023-05-24T09:29:10;95045.56;;;19.90;92.28
22047;BME280;11187;49.412;20.956;2023-05-24T09:32:06;95047.66;;;19.84;91.45
22047;BME280;11187;49.412;20.956;2023-05-24T09:34:41;95047.66;;;19.68;91.40
22047;BME280;11187;49.412;20.956;2023-05-24T09:37:35;95056.13;;;19.39;90.19
22047;BME280;11187;49.412;20.956;2023-05-24T09:40:17;95055.09;;;19.26;92.57
22047;BME280;11187;49.412;20.956;2023-05-24T09:43:08;95048.06;;;19.12;90.25
22047;BME280;11187;49.412;20.956;2023-05-24T09:45:45;95059.31;;;18.95;93.32
22047;BME280;11187;49.412;20.956;2023-05-24T09:48:32;95054.81;;;18.82;92.78
22047;BME280;11187;49.412;20.956;2023-05-24T09:51:06;95053.69;;;18.70;92.91
22047;BME280;11187;49.412;20.956;2023-05-24T09:54:01;95050.72;;;18.60;91.42
22047;BME280;11187;49.412;20.956;2023-05-24T09:56:59;95050.41;;;18.84;90.26
22047;BME280;11187;49.412;20.956;2023-05-24T09:59:52;95053.25;;;19.12;89.90
22047;BME280;11187;49.412;20.956;2023-05-24T10:03:02;95054.44;;;19.54;89.82
22047;BME280;11187;49.412;20.956;2023-05-24T10:05:37;95052.84;;;19.84;89.95
22047;BME280;11187;49.412;20.956;2023-05-24T10:08:33;95058.78;;;20.01;85.52
22047;BME280;11187;49.412;20.956;2023-05-24T10:11:27;95054.75;;;20.42;87.88
22047;BME280;11187;49.412;20.956;2023-05-24T10:14:24;95061.09;;;20.82;87.33
22047;BME280;11187;49.412;20.956;2023-05-24T10:16:58;95059.69;;;21.05;83.38
22047;BME280;11187;49.412;20.956;2023-05-24T10:19:45;95051.66;;;20.80;82.37
22047;BME280;11187;49.412;20.956;2023-05-24T10:22:20;95066.59;;;20.62;84.20
22047;BME280;11187;49.412;20.956;2023-05-24T10:25:07;95059.72;;;20.61;82.05
22047;BME280;11187;49.412;20.956;2023-05-24T10:27:44;95056.06;;;20.49;82.95
22047;BME280;11187;49.412;20.956;2023-05-24T10:33:59;95065.34;;;19.93;85.34
22047;BME280;11187;49.412;20.956;2023-05-24T10:36:55;95063.84;;;19.73;83.98
22047;BME280;11187;49.412;20.956;2023-05-24T10:39:31;95075.78;;;19.59;86.56
22047;BME280;11187;49.412;20.956;2023-05-24T10:42:18;95068.75;;;19.61;85.15
22047;BME280;11187;49.412;20.956;2023-05-24T10:44:55;95083.56;;;19.59;86.00
22047;BME280;11187;49.412;20.956;2023-05-24T10:47:42;95087.03;;;19.60;85.75
22047;BME280;11187;49.412;20.956;2023-05-24T10:50:20;95083.06;;;19.53;86.90
22047;BME280;11187;49.412;20.956;2023-05-24T10:53:19;95081.56;;;19.33;85.29
22047;BME280;11187;49.412;20.956;2023-05-24T11:01:31;95091.22;;;18.80;88.29
22047;BME280;11187;49.412;20.956;2023-05-24T11:04:19;95097.41;;;18.77;89.93
22047;BME280;11187;49.412;20.956;2023-05-24T11:07:00;95097.69;;;18.71;89.61
22047;BME280;11187;49.412;20.956;2023-05-24T11:09:55;95092.34;;;18.57;88.63
22047;BME280;11187;49.412;20.956;2023-05-24T11:12:32;95078.94;;;18.49;87.76
22047;BME280;11187;49.412;20.956;2023-05-24T11:15:22;95085.88;;;18.48;90.57
22047;BME280;11187;49.412;20.956;2023-05-24T11:20:46;95081.53;;;18.49;88.82
22047;BME280;11187;49.412;20.956;2023-05-24T11:23:27;95083.19;;;18.50;89.41
22047;BME280;11187;49.412;20.956;2023-05-24T11:26:05;95092.66;;;18.68;87.92
22047;BME280;11187;49.412;20.956;2023-05-24T11:28:52;95090.38;;;18.97;89.77
22047;BME280;11187;49.412;20.956;2023-05-24T11:31:27;95090.72;;;19.07;87.60
22047;BME280;11187;49.412;20.956;2023-05-24T11:34:18;95091.91;;;19.17;88.32
22047;BME280;11187;49.412;20.956;2023-05-24T11:36:53;95088.47;;;19.16;86.27
22047;BME280;11187;49.412;20.956;2023-05-24T11:39:49;95092.81;;;19.16;86.88
22047;BME280;11187;49.412;20.956;2023-05-24T11:42:27;95100.31;;;19.05;87.01
22047;BME280;11187;49.412;20.956;2023-05-24T11:45:20;95100.16;;;18.92;87.04
22047;BME280;11187;49.412;20.956;2023-05-24T11:47:54;95100.75;;;18.80;87.66
22047;BME280;11187;49.412;20.956;2023-05-24T11:50:48;95104.94;;;18.65;88.41
22047;BME280;11187;49.412;20.956;2023-05-24T11:53:44;95103.13;;;18.49;88.68
22047;BME280;11187;49.412;20.956;2023-05-24T11:56:38;95104.25;;;18.44;90.89
22047;BME280;11187;49.412;20.956;2023-05-24T11:59:34;95102.03;;;18.36;90.35
22047;BME280;11187;49.412;20.956;2023-05-24T12:02:10;95099.28;;;18.39;90.75
22047;BME280;11187;49.412;20.956;2023-05-24T12:05:07;95097.31;;;18.44;91.11
22047;BME280;11187;49.412;20.956;2023-05-24T12:08:09;95090.59;;;18.57;91.45
22047;BME280;11187;49.412;20.956;2023-05-24T12:11:03;95095.34;;;18.67;90.76
22047;BME280;11187;49.412;20.956;2023-05-24T12:13:38;95092.97;;;18.80;90.52
22047;BME280;11187;49.412;20.956;2023-05-24T12:16:26;95100.66;;;18.98;90.61
22047;BME280;11187;49.412;20.956;2023-05-24T12:19:01;95099.19;;;19.10;89.57
22047;BME280;11187;49.412;20.956;2023-05-24T12:21:59;95088.06;;;19.08;89.95
22047;BME280;11187;49.412;20.956;2023-05-24T12:24:33;95088.56;;;19.15;88.74
22047;BME280;11187;49.412;20.956;2023-05-24T12:27:26;95091.06;;;19.16;90.65
22047;BME280;11187;49.412;20.956;2023-05-24T12:30:05;95094.94;;;19.25;88.48
22047;BME280;11187;49.412;20.956;2023-05-24T12:32:57;95094.59;;;19.15;88.08
22047;BME280;11187;49.412;20.956;2023-05-24T12:35:31;95097.13;;;19.17;88.65
22047;BME280;11187;49.412;20.956;2023-05-24T12:38:24;95095.28;;;19.19;90.02
22047;BME280;11187;49.412;20.956;2023-05-24T12:41:18;95103.63;;;19.08;88.97
22047;BME280;11187;49.412;20.956;2023-05-24T12:43:52;95107.59;;;18.98;89.87
22047;BME280;11187;49.412;20.956;2023-05-24T12:46:39;95115.00;;;18.88;90.16
22047;BME280;11187;49.412;20.956;2023-05-24T12:49:13;95108.75;;;18.92;91.47
22047;BME280;11187;49.412;20.956;2023-05-24T12:52:06;95102.22;;;18.85;91.47
22047;BME280;11187;49.412;20.956;2023-05-24T12:54:40;95098.84;;;18.83;91.94
22047;BME280;11187;49.412;20.956;2023-05-24T12:57:26;95108.97;;;18.70;92.52
22047;BME280;11187;49.412;20.956;2023-05-24T13:00:00;95106.53;;;18.67;92.63
22047;BME280;11187;49.412;20.956;2023-05-24T13:02:55;95089.97;;;18.52;90.46
22047;BME280;11187;49.412;20.956;2023-05-24T13:05:48;95094.78;;;18.43;91.77
22047;BME280;11187;49.412;20.956;2023-05-24T13:08:42;95101.34;;;18.32;91.65
22047;BME280;11187;49.412;20.956;2023-05-24T13:11:36;95097.69;;;18.19;91.41
22047;BME280;11187;49.412;20.956;2023-05-24T13:14:10;95092.19;;;18.08;92.14
22047;BME280;11187;49.412;20.956;2023-05-24T13:16:56;95085.81;;;17.96;93.14
22047;BME280;11187;49.412;20.956;2023-05-24T13:19:30;95086.81;;;17.93;93.70
22047;BME280;11187;49.412;20.956;2023-05-24T13:22:16;95099.84;;;17.92;92.80
22047;BME280;11187;49.412;20.956;2023-05-24T13:24:50;95101.34;;;17.96;92.49
22047;BME280;11187;49.412;20.956;2023-05-24T13:27:36;95107.56;;;18.11;94.36
22047;BME280;11187;49.412;20.956;2023-05-24T13:30:10;95113.97;;;18.21;92.57
22047;BME280;11187;49.412;20.956;2023-05-24T13:32:57;95119.41;;;18.34;93.13
22047;BME280;11187;49.412;20.956;2023-05-24T13:35:31;95119.94;;;18.41;92.62
22047;BME280;11187;49.412;20.956;2023-05-24T13:38:21;95115.59;;;18.41;92.59
22047;BME280;11187;49.412;20.956;2023-05-24T13:40:55;95116.25;;;18.46;92.65
22047;BME280;11187;49.412;20.956;2023-05-24T13:43:50;95118.91;;;18.45;91.51
22047;BME280;11187;49.412;20.956;2023-05-24T13:46:44;95115.94;;;18.35;91.10
22047;BME280;11187;49.412;20.956;2023-05-24T13:49:19;95130.16;;;18.26;91.69
22047;BME280;11187;49.412;20.956;2023-05-24T13:52:12;95129.91;;;18.13;91.66
22047;BME280;11187;49.412;20.956;2023-05-24T13:55:07;95118.16;;;18.06;91.90
22047;BME280;11187;49.412;20.956;2023-05-24T13:58:00;95125.78;;;18.09;93.32
22047;BME280;11187;49.412;20.956;2023-05-24T14:00:34;95124.78;;;18.12;92.42
22047;BME280;11187;49.412;20.956;2023-05-24T14:03:21;95119.53;;;18.13;93.11
22047;BME280;11187;49.412;20.956;2023-05-24T14:05:55;95127.25;;;18.15;93.23
22047;BME280;11187;49.412;20.956;2023-05-24T14:08:42;95127.75;;;18.04;92.55
22047;BME280;11187;49.412;20.956;2023-05-24T14:11:15;95130.78;;;17.95;93.55
22047;BME280;11187;49.412;20.956;2023-05-24T14:14:03;95131.88;;;17.89;93.85
22047;BME280;11187;49.412;20.956;2023-05-24T14:16:40;95138.97;;;17.86;93.66
22047;BME280;11187;49.412;20.956;2023-05-24T14:19:36;95135.81;;;17.79;94.12
22047;BME280;11187;49.412;20.956;2023-05-24T14:22:30;95144.84;;;17.70;94.04
22047;BME280;11187;49.412;20.956;2023-05-24T14:25:04;95143.16;;;17.69;93.92
22047;BME280;11187;49.412;20.956;2023-05-24T14:27:51;95141.34;;;17.71;94.97
22047;BME280;11187;49.412;20.956;2023-05-24T14:30:25;95151.50;;;17.76;94.54
22047;BME280;11187;49.412;20.956;2023-05-24T14:33:11;95145.44;;;17.75;94.07
22047;BME280;11187;49.412;20.956;2023-05-24T14:35:45;95152.66;;;17.69;93.50
22047;BME280;11187;49.412;20.956;2023-05-24T14:38:31;95156.44;;;17.62;94.11
22047;BME280;11187;49.412;20.956;2023-05-24T14:41:05;95148.69;;;17.62;95.00